createdAt,value
2017-06-21T00:01:23.356Z,19.41
2017-06-21T00:02:04.269Z,19.37
2017-06-21T00:04:40.849Z,19.64
2017-06-21T00:05:21.745Z,19.33
2017-06-21T00:07:03.718Z,18.73
2017-06-21T00:07:44.621Z,19.07
2017-06-21T00:08:25.517Z,18.92
2017-06-21T00:09:06.406Z,19.14
2017-06-21T00:09:47.315Z,19.3
2017-06-21T00:10:28.195Z,18.98
2017-06-21T00:11:09.103Z,19.27
2017-06-21T00:11:49.981Z,19.14
2017-06-21T00:12:30.869Z,19.12
2017-06-21T00:13:11.748Z,19.18
2017-06-21T00:13:52.661Z,19.24
2017-06-21T00:14:33.549Z,19.37
2017-06-21T00:15:14.428Z,19.47
2017-06-21T00:15:55.321Z,19.24
2017-06-21T00:16:36.217Z,19.24
2017-06-21T00:17:17.111Z,19.3
2017-06-21T00:17:58.013Z,19.33
2017-06-21T00:18:38.902Z,19.26
2017-06-21T00:19:19.785Z,19.33
2017-06-21T00:20:00.666Z,19.22
2017-06-21T00:20:41.545Z,19.3
2017-06-21T00:21:22.472Z,19.21
2017-06-21T00:22:03.345Z,19.3
2017-06-21T00:22:44.269Z,19.27
2017-06-21T00:23:25.153Z,19.14
2017-06-21T00:24:06.061Z,18.78
2017-06-21T00:24:46.945Z,18.66
2017-06-21T00:25:27.858Z,18.8
2017-06-21T00:26:08.765Z,19
2017-06-21T00:26:49.649Z,18.77
2017-06-21T00:27:30.573Z,18.75
2017-06-21T00:28:11.521Z,18.88
2017-06-21T00:28:52.413Z,18.95
2017-06-21T00:29:33.312Z,19.02
2017-06-21T00:30:14.197Z,18.99
2017-06-21T00:30:55.080Z,19.02
2017-06-21T00:31:35.965Z,18.88
2017-06-21T00:32:16.866Z,18.86
2017-06-21T00:32:57.790Z,19.21
2017-06-21T00:33:38.698Z,19.22
2017-06-21T00:34:19.583Z,19.11
2017-06-21T00:35:00.467Z,19.07
2017-06-21T00:35:41.364Z,18.95
2017-06-21T00:36:22.233Z,19.08
2017-06-21T00:37:03.111Z,18.78
2017-06-21T00:37:43.993Z,18.5
2017-06-21T00:38:24.902Z,18.44
2017-06-21T00:39:05.786Z,18.41
2017-06-21T00:39:46.673Z,18.77
2017-06-21T00:40:27.574Z,18.84
2017-06-21T00:41:08.462Z,18.88
2017-06-21T00:41:49.349Z,18.95
2017-06-21T00:42:30.235Z,18.99
2017-06-21T00:43:11.118Z,18.89
2017-06-21T00:43:52.012Z,19.26
2017-06-21T00:44:32.907Z,19.26
2017-06-21T00:45:13.795Z,19.09
2017-06-21T00:45:54.687Z,18.66
2017-06-21T00:46:35.583Z,18.71
2017-06-21T00:48:23.818Z,18.99
2017-06-21T00:49:04.734Z,18.8
2017-06-21T00:49:45.613Z,18.75
2017-06-21T00:50:26.516Z,18.75
2017-06-21T00:51:07.405Z,18.89
2017-06-21T00:51:48.289Z,18.95
2017-06-21T00:52:29.170Z,18.9
2017-06-21T00:53:10.078Z,18.88
2017-06-21T00:56:56.762Z,18.35
2017-06-21T00:57:37.654Z,18.47
2017-06-21T00:58:18.560Z,18.63
2017-06-21T00:58:59.446Z,18.53
2017-06-21T00:59:40.343Z,18.5
2017-06-21T01:00:21.227Z,18.43
2017-06-21T01:01:02.110Z,18.2
2017-06-21T01:01:43.013Z,18.07
2017-06-21T01:02:23.897Z,17.87
2017-06-21T01:03:04.790Z,18.08
2017-06-21T01:03:45.693Z,17.8
2017-06-21T01:04:26.579Z,18.18
2017-06-21T01:05:07.477Z,18.45
2017-06-21T01:05:48.369Z,18.49
2017-06-21T01:06:29.260Z,18.45
2017-06-21T01:07:10.149Z,18.63
2017-06-21T01:07:51.046Z,18.47
2017-06-21T01:08:31.920Z,18.8
2017-06-21T01:09:12.798Z,18.45
2017-06-21T01:09:53.687Z,18.03
2017-06-21T01:10:34.573Z,18.1
2017-06-21T01:11:15.468Z,18.13
2017-06-21T01:11:56.333Z,18.25
2017-06-21T01:12:37.219Z,18.5
2017-06-21T01:13:18.107Z,18.31
2017-06-21T01:13:59.002Z,18.2
2017-06-21T01:14:39.917Z,18.13
2017-06-21T01:15:20.802Z,18
2017-06-21T01:16:01.703Z,17.72
2017-06-21T01:16:42.600Z,18.15
2017-06-21T01:17:23.485Z,18.1
2017-06-21T01:18:04.385Z,18.03
2017-06-21T01:18:45.292Z,18.05
2017-06-21T01:19:26.190Z,18.04
2017-06-21T01:20:07.085Z,17.98
2017-06-21T01:20:47.966Z,17.89
2017-06-21T01:21:28.858Z,17.85
2017-06-21T01:22:09.739Z,17.97
2017-06-21T01:22:50.641Z,18
2017-06-21T01:23:31.516Z,18.13
2017-06-21T01:24:12.410Z,18.03
2017-06-21T01:24:53.303Z,18.03
2017-06-21T01:25:34.182Z,17.92
2017-06-21T01:26:15.060Z,18.22
2017-06-21T01:26:55.966Z,18.04
2017-06-21T01:27:36.885Z,17.94
2017-06-21T01:28:17.771Z,17.94
2017-06-21T01:28:58.687Z,17.89
2017-06-21T01:29:39.566Z,18.07
2017-06-21T01:30:20.493Z,18.07
2017-06-21T01:31:01.436Z,18.41
2017-06-21T01:32:41.049Z,18.88
2017-06-21T01:33:21.995Z,18.8
2017-06-21T01:34:02.904Z,18.8
2017-06-21T01:34:43.780Z,18.71
2017-06-21T01:35:24.713Z,18.68
2017-06-21T01:36:05.627Z,18.47
2017-06-21T01:36:46.537Z,18.44
2017-06-21T01:37:27.428Z,18.45
2017-06-21T01:38:08.319Z,18.07
2017-06-21T01:38:49.201Z,17.98
2017-06-21T01:39:30.083Z,18.01
2017-06-21T01:40:10.967Z,17.72
2017-06-21T01:40:51.848Z,18.03
2017-06-21T01:41:32.746Z,17.85
2017-06-21T01:42:13.643Z,17.95
2017-06-21T01:42:54.539Z,17.94
2017-06-21T01:43:35.413Z,18.05
2017-06-21T01:44:16.313Z,18
2017-06-21T01:44:57.209Z,18.11
2017-06-21T01:45:38.101Z,17.98
2017-06-21T01:46:18.993Z,17.74
2017-06-21T01:46:59.884Z,17.59
2017-06-21T01:47:40.772Z,17.67
2017-06-21T01:48:21.651Z,17.92
2017-06-21T01:49:02.533Z,17.85
2017-06-21T01:49:43.427Z,18.03
2017-06-21T01:50:24.314Z,18.22
2017-06-21T01:51:05.201Z,18.28
2017-06-21T01:51:46.105Z,18.08
2017-06-21T01:52:26.991Z,18.1
2017-06-21T01:53:07.876Z,17.83
2017-06-21T01:55:21.663Z,17.71
2017-06-21T01:56:02.580Z,17.76
2017-06-21T01:56:43.548Z,17.85
2017-06-21T01:57:24.491Z,17.74
2017-06-21T01:58:05.492Z,17.79
2017-06-21T01:58:47.335Z,17.67
2017-06-21T01:59:28.380Z,17.59
2017-06-21T02:00:09.271Z,17.63
2017-06-21T02:00:50.149Z,17.57
2017-06-21T02:01:31.194Z,17.74
2017-06-21T02:02:12.225Z,18
2017-06-21T02:02:53.047Z,18.04
2017-06-21T02:03:33.936Z,17.89
2017-06-21T02:06:55.336Z,17.36
2017-06-21T02:07:36.232Z,17.24
2017-06-21T02:08:17.165Z,17.24
2017-06-21T02:08:58.056Z,17.19
2017-06-21T02:09:38.994Z,17.15
2017-06-21T02:10:19.913Z,17.67
2017-06-21T02:11:00.826Z,17.57
2017-06-21T02:11:41.775Z,17.41
2017-06-21T02:12:22.659Z,17.27
2017-06-21T02:13:03.543Z,17.6
2017-06-21T02:13:44.429Z,17.79
2017-06-21T02:14:26.175Z,17.57
2017-06-21T02:15:07.120Z,17.65
2017-06-21T02:15:48.044Z,17.85
2017-06-21T02:16:28.926Z,17.79
2017-06-21T02:17:09.873Z,17.56
2017-06-21T02:17:50.721Z,17.63
2017-06-21T02:18:31.616Z,17.63
2017-06-21T02:19:12.497Z,17.65
2017-06-21T02:19:53.555Z,17.67
2017-06-21T02:20:34.501Z,17.76
2017-06-21T02:21:15.412Z,18.05
2017-06-21T02:21:56.383Z,17.87
2017-06-21T02:22:37.320Z,18.11
2017-06-21T02:23:18.258Z,18.05
2017-06-21T02:23:59.137Z,17.9
2017-06-21T02:24:40.032Z,17.82
2017-06-21T02:25:20.924Z,18.11
2017-06-21T02:26:01.791Z,17.94
2017-06-21T02:27:40.177Z,18.22
2017-06-21T02:28:21.052Z,18.37
2017-06-21T02:29:01.933Z,18.25
2017-06-21T02:29:42.858Z,18.08
2017-06-21T02:30:23.777Z,18
2017-06-21T02:31:04.703Z,17.94
2017-06-21T02:31:45.616Z,17.89
2017-06-21T02:32:26.527Z,18.22
2017-06-21T02:33:07.434Z,17.78
2017-06-21T02:33:48.350Z,17.92
2017-06-21T02:34:29.246Z,18
2017-06-21T02:35:10.160Z,17.74
2017-06-21T02:35:51.081Z,17.86
2017-06-21T02:36:32.035Z,18.44
2017-06-21T02:37:13.393Z,18.28
2017-06-21T02:37:54.317Z,18.2
2017-06-21T02:38:35.222Z,18.05
2017-06-21T02:40:23.483Z,18.26
2017-06-21T02:41:04.376Z,18.08
2017-06-21T02:41:45.280Z,18.29
2017-06-21T02:42:26.150Z,17.8
2017-06-21T02:43:07.050Z,17.9
2017-06-21T02:43:47.927Z,17.79
2017-06-21T02:44:28.823Z,17.57
2017-06-21T02:45:09.678Z,17.52
2017-06-21T02:45:50.555Z,17.14
2017-06-21T02:46:31.450Z,17.2
2017-06-21T02:47:12.332Z,17.2
2017-06-21T02:47:53.220Z,17.14
2017-06-21T02:48:34.117Z,17.09
2017-06-21T02:49:15.000Z,17.2
2017-06-21T02:49:55.882Z,16.81
2017-06-21T02:50:36.765Z,17.31
2017-06-21T02:51:17.661Z,17.05
2017-06-21T02:51:58.547Z,17.11
2017-06-21T02:52:39.426Z,17.05
2017-06-21T02:53:20.300Z,17.12
2017-06-21T02:54:01.192Z,17.14
2017-06-21T02:54:42.080Z,17.05
2017-06-21T02:55:22.957Z,16.84
2017-06-21T02:56:03.847Z,16.84
2017-06-21T02:56:44.742Z,16.93
2017-06-21T02:57:25.626Z,17.06
2017-06-21T02:58:06.515Z,17.63
2017-06-21T02:58:47.407Z,17.48
2017-06-21T02:59:28.286Z,17.38
2017-06-21T03:00:09.174Z,17.36
2017-06-21T03:00:50.065Z,17.27
2017-06-21T03:01:30.964Z,17.34
2017-06-21T03:02:11.849Z,17.24
2017-06-21T03:02:52.739Z,17.23
2017-06-21T03:03:34.057Z,17.3
2017-06-21T03:04:14.945Z,17.08
2017-06-21T03:04:55.871Z,17.57
2017-06-21T03:05:36.753Z,18.05
2017-06-21T03:06:17.643Z,17.87
2017-06-21T03:06:58.529Z,17.79
2017-06-21T03:07:39.428Z,17.39
2017-06-21T03:08:20.314Z,17.15
2017-06-21T03:09:01.203Z,17.57
2017-06-21T03:09:42.106Z,17.6
2017-06-21T03:10:23.058Z,17.63
2017-06-21T03:11:04.000Z,17.6
2017-06-21T03:11:45.035Z,17.26
2017-06-21T03:12:25.978Z,17.26
2017-06-21T03:13:06.878Z,17.24
2017-06-21T03:13:47.806Z,17.06
2017-06-21T03:14:28.689Z,17.04
2017-06-21T03:15:09.617Z,17.6
2017-06-21T03:15:50.522Z,17.34
2017-06-21T03:18:19.640Z,17.08
2017-06-21T03:19:00.530Z,17.09
2017-06-21T03:19:41.432Z,17.05
2017-06-21T03:20:22.325Z,17.01
2017-06-21T03:21:03.217Z,17.09
2017-06-21T03:21:44.116Z,17.39
2017-06-21T03:22:24.996Z,16.94
2017-06-21T03:23:05.887Z,16.99
2017-06-21T03:23:46.777Z,17.05
2017-06-21T03:24:27.658Z,16.79
2017-06-21T03:25:08.548Z,16.65
2017-06-21T03:25:49.436Z,17.01
2017-06-21T03:26:30.333Z,17.33
2017-06-21T03:27:11.227Z,17.23
2017-06-21T03:27:52.113Z,17.23
2017-06-21T03:28:33.002Z,17.41
2017-06-21T03:29:13.885Z,17.3
2017-06-21T03:29:54.796Z,17.38
2017-06-21T03:30:36.532Z,17.38
2017-06-21T03:31:17.540Z,17.15
2017-06-21T03:31:58.441Z,17.12
2017-06-21T03:32:39.343Z,17.04
2017-06-21T03:33:20.235Z,16.94
2017-06-21T03:34:01.117Z,16.72
2017-06-21T03:34:42.012Z,17.06
2017-06-21T03:35:22.940Z,17.06
2017-06-21T03:36:03.862Z,17.14
2017-06-21T03:36:44.790Z,17.26
2017-06-21T03:37:25.791Z,16.78
2017-06-21T03:38:06.693Z,16.57
2017-06-21T03:38:47.711Z,16.49
2017-06-21T03:39:28.661Z,16.6
2017-06-21T03:40:09.630Z,16.42
2017-06-21T03:40:50.580Z,16.53
2017-06-21T03:41:31.526Z,16.47
2017-06-21T03:42:12.430Z,16.79
2017-06-21T03:42:53.361Z,16.86
2017-06-21T03:43:34.260Z,17.14
2017-06-21T03:44:15.184Z,17.27
2017-06-21T03:44:56.170Z,17.29
2017-06-21T03:45:37.322Z,16.93
2017-06-21T03:46:18.235Z,16.94
2017-06-21T03:46:59.166Z,16.54
2017-06-21T03:47:40.002Z,16.75
2017-06-21T03:48:20.977Z,16.99
2017-06-21T03:49:01.863Z,17.08
2017-06-21T03:49:42.748Z,16.9
2017-06-21T03:50:23.719Z,17.02
2017-06-21T03:51:04.678Z,17.31
2017-06-21T03:53:18.487Z,17.31
2017-06-21T03:53:59.372Z,17.27
2017-06-21T03:54:40.325Z,17.24
2017-06-21T03:55:21.245Z,16.91
2017-06-21T03:56:02.299Z,16.78
2017-06-21T03:56:43.981Z,16.66
2017-06-21T03:57:25.126Z,16.79
2017-06-21T03:58:06.053Z,16.97
2017-06-21T03:58:46.931Z,17.06
2017-06-21T03:59:27.835Z,17.01
2017-06-21T04:01:51.272Z,16.68
2017-06-21T04:02:32.149Z,16.42
2017-06-21T04:05:56.572Z,17.29
2017-06-21T04:06:37.474Z,17.38
2017-06-21T04:07:18.364Z,17.39
2017-06-21T04:07:59.253Z,17.15
2017-06-21T04:08:40.137Z,17.44
2017-06-21T04:09:21.007Z,17.16
2017-06-21T04:10:01.900Z,16.89
2017-06-21T04:10:42.790Z,16.65
2017-06-21T04:11:23.704Z,16.39
2017-06-21T04:12:04.606Z,16.42
2017-06-21T04:12:45.505Z,16.28
2017-06-21T04:13:27.176Z,16.12
2017-06-21T04:14:08.106Z,16.13
2017-06-21T04:14:49.031Z,16.32
2017-06-21T04:15:29.945Z,16.23
2017-06-21T04:16:10.845Z,16.01
2017-06-21T04:16:51.722Z,16.21
2017-06-21T04:17:32.626Z,16.47
2017-06-21T04:18:13.647Z,16.54
2017-06-21T04:18:54.507Z,16.76
2017-06-21T04:19:35.448Z,16.76
2017-06-21T04:20:16.350Z,16.69
2017-06-21T04:20:57.231Z,16.43
2017-06-21T04:21:38.229Z,16.31
2017-06-21T04:22:19.136Z,16.5
2017-06-21T04:23:00.022Z,16.69
2017-06-21T04:23:40.908Z,17.16
2017-06-21T04:24:21.947Z,17.3
2017-06-21T04:25:02.854Z,17.2
2017-06-21T04:25:43.802Z,17.15
2017-06-21T04:26:24.663Z,17.36
2017-06-21T04:27:05.559Z,17.39
2017-06-21T04:27:48.400Z,17.33
2017-06-21T04:28:30.914Z,17.36
2017-06-21T04:29:14.433Z,17.24
2017-06-21T04:29:55.339Z,17.29
2017-06-21T04:30:37.975Z,17.23
2017-06-21T04:31:22.671Z,17.23
2017-06-21T04:32:40.581Z,17.08
2017-06-21T04:33:21.462Z,16.68
2017-06-21T04:34:59.867Z,16.39
2017-06-21T04:35:40.797Z,16.33
2017-06-21T04:36:21.738Z,16.29
2017-06-21T04:37:02.651Z,16.5
2017-06-21T04:37:43.540Z,16.33
2017-06-21T04:39:16.841Z,16.36
2017-06-21T04:39:57.843Z,16.31
2017-06-21T04:40:38.794Z,16.36
2017-06-21T04:41:19.731Z,16.24
2017-06-21T04:42:00.633Z,16.26
2017-06-21T04:42:41.524Z,16.31
2017-06-21T04:43:22.412Z,16.24
2017-06-21T04:44:03.305Z,16.28
2017-06-21T04:44:47.868Z,16.21
2017-06-21T04:46:16.018Z,16.24
2017-06-21T04:46:56.958Z,16.24
2017-06-21T04:47:37.911Z,16.26
2017-06-21T04:48:18.816Z,16.23
2017-06-21T04:48:59.709Z,16.26
2017-06-21T04:49:40.604Z,16.21
2017-06-21T04:50:22.163Z,16.28
2017-06-21T04:51:04.811Z,16.38
2017-06-21T04:51:45.701Z,16.42
2017-06-21T04:52:30.813Z,16.32
2017-06-21T04:53:11.697Z,16.24
2017-06-21T04:53:52.586Z,16.24
2017-06-21T04:54:33.543Z,16.32
2017-06-21T04:55:14.539Z,16.23
2017-06-21T04:55:55.425Z,16.09
2017-06-21T04:56:36.313Z,16.04
2017-06-21T04:57:17.181Z,15.97
2017-06-21T04:57:59.679Z,15.95
2017-06-21T04:58:42.551Z,16.08
2017-06-21T04:59:23.450Z,16.12
2017-06-21T05:00:04.364Z,16.09
2017-06-21T05:00:45.236Z,16.12
2017-06-21T05:01:26.123Z,16.08
2017-06-21T05:02:07.015Z,16.1
2017-06-21T05:02:47.903Z,16.13
2017-06-21T05:03:28.780Z,16.29
2017-06-21T05:04:09.674Z,16.23
2017-06-21T05:04:50.590Z,16.31
2017-06-21T05:05:31.480Z,16.17
2017-06-21T05:06:12.376Z,16.2
2017-06-21T05:06:53.278Z,16.13
2017-06-21T05:07:34.187Z,16.12
2017-06-21T05:08:15.076Z,16.24
2017-06-21T05:08:55.965Z,16.31
2017-06-21T05:09:36.861Z,16.29
2017-06-21T05:10:17.822Z,16.24
2017-06-21T05:10:58.780Z,16.2
2017-06-21T05:11:39.659Z,16.2
2017-06-21T05:12:20.549Z,16.21
2017-06-21T05:13:01.446Z,16.26
2017-06-21T05:13:44.846Z,16.35
2017-06-21T05:14:25.747Z,16.39
2017-06-21T05:15:06.628Z,16.43
2017-06-21T05:15:47.550Z,16.42
2017-06-21T05:16:28.428Z,16.33
2017-06-21T05:17:09.341Z,16.33
2017-06-21T05:17:50.241Z,16.35
2017-06-21T05:18:31.127Z,16.33
2017-06-21T05:19:12.026Z,16.47
2017-06-21T05:19:52.918Z,16.51
2017-06-21T05:21:31.388Z,16.64
2017-06-21T05:22:12.308Z,16.65
2017-06-21T05:22:53.240Z,16.78
2017-06-21T05:23:34.210Z,16.83
2017-06-21T05:24:15.085Z,16.84
2017-06-21T05:24:56.031Z,16.87
2017-06-21T05:25:36.921Z,16.86
2017-06-21T05:26:17.799Z,16.9
2017-06-21T05:26:58.727Z,16.76
2017-06-21T05:27:39.614Z,16.69
2017-06-21T05:28:20.501Z,16.42
2017-06-21T05:29:01.406Z,16.56
2017-06-21T05:29:42.315Z,16.65
2017-06-21T05:30:23.209Z,16.51
2017-06-21T05:31:04.099Z,16.58
2017-06-21T05:31:45.023Z,16.6
2017-06-21T05:32:25.897Z,16.72
2017-06-21T05:33:06.802Z,16.78
2017-06-21T05:33:47.705Z,16.89
2017-06-21T05:34:28.617Z,17.04
2017-06-21T05:35:09.506Z,16.9
2017-06-21T05:38:34.493Z,17.05
2017-06-21T05:39:15.406Z,17.05
2017-06-21T05:40:54.654Z,17.2
2017-06-21T05:41:35.583Z,17.27
2017-06-21T05:42:16.486Z,17.22
2017-06-21T05:42:57.367Z,17.11
2017-06-21T05:43:38.254Z,17.06
2017-06-21T05:44:19.164Z,17.05
2017-06-21T05:45:00.052Z,17.14
2017-06-21T05:45:40.936Z,17.24
2017-06-21T05:46:21.838Z,17.27
2017-06-21T05:47:02.736Z,17.36
2017-06-21T05:47:43.626Z,17.68
2017-06-21T05:48:24.517Z,18.45
2017-06-21T05:49:05.422Z,18.38
2017-06-21T05:49:46.325Z,18.43
2017-06-21T05:51:25.239Z,18.49
2017-06-21T05:52:06.140Z,18.71
2017-06-21T05:52:47.016Z,18.31
2017-06-21T05:53:27.900Z,18.19
2017-06-21T05:54:08.785Z,18.34
2017-06-21T05:54:49.672Z,18.38
2017-06-21T05:55:30.552Z,18.52
2017-06-21T05:56:11.473Z,18.53
2017-06-21T05:56:52.451Z,18.6
2017-06-21T05:57:33.351Z,18.25
2017-06-21T05:58:14.222Z,17.76
2017-06-21T05:58:55.120Z,17.79
2017-06-21T05:59:35.989Z,18.16
2017-06-21T06:00:16.881Z,18.07
2017-06-21T06:02:34.260Z,18.11
2017-06-21T06:03:15.161Z,18.01
2017-06-21T06:03:56.036Z,18.25
2017-06-21T06:04:37.000Z,18.52
2017-06-21T06:05:17.887Z,18.53
2017-06-21T06:05:58.781Z,18.25
2017-06-21T06:06:39.668Z,18.29
2017-06-21T06:07:20.563Z,18.52
2017-06-21T06:08:01.446Z,19.04
2017-06-21T06:08:42.348Z,19.7
2017-06-21T06:09:23.237Z,20.32
2017-06-21T06:10:04.242Z,20.32
2017-06-21T06:10:45.147Z,20.21
2017-06-21T06:11:26.042Z,20.22
2017-06-21T06:12:06.930Z,20.51
2017-06-21T06:12:47.808Z,20.67
2017-06-21T06:13:28.718Z,20.59
2017-06-21T06:14:09.596Z,20.22
2017-06-21T06:14:50.509Z,19.84
2017-06-21T06:15:31.450Z,20.07
2017-06-21T06:18:12.641Z,21.4
2017-06-21T06:18:53.578Z,22.25
2017-06-21T06:19:34.547Z,22.73
2017-06-21T06:23:17.832Z,22.62
2017-06-21T06:23:58.731Z,22.41
2017-06-21T06:24:39.631Z,22.96
2017-06-21T06:25:20.528Z,22.22
2017-06-21T06:26:01.473Z,22.28
2017-06-21T06:26:42.418Z,22.87
2017-06-21T06:28:10.707Z,22.76
2017-06-21T06:30:04.385Z,23.63
2017-06-21T06:30:45.278Z,23.71
2017-06-21T06:31:26.207Z,23.15
2017-06-21T06:32:07.345Z,22.22
2017-06-21T06:32:48.281Z,21.83
2017-06-21T06:33:29.179Z,22.5
2017-06-21T06:34:10.080Z,23.24
2017-06-21T06:37:34.919Z,24.03
2017-06-21T06:38:16.793Z,23
2017-06-21T06:38:58.346Z,22.87
2017-06-21T06:39:39.457Z,22.18
2017-06-21T06:40:58.535Z,21.72
2017-06-21T06:41:39.458Z,21.7
2017-06-21T06:42:20.331Z,22.32
2017-06-21T06:43:01.239Z,21.43
2017-06-21T06:43:42.150Z,21.14
2017-06-21T06:44:23.065Z,21.29
2017-06-21T06:45:03.966Z,22.66
2017-06-21T06:45:44.831Z,23.84
2017-06-21T06:46:25.755Z,24.63
2017-06-21T06:47:06.690Z,25.59
2017-06-21T06:50:36.428Z,23.91
2017-06-21T06:51:17.324Z,23.78
2017-06-21T06:51:58.255Z,23.65
2017-06-21T06:52:39.161Z,23.23
2017-06-21T06:53:22.967Z,22.87
2017-06-21T06:54:03.885Z,23.28
2017-06-21T06:57:28.585Z,24.02
2017-06-21T06:58:09.500Z,23.37
2017-06-21T06:58:51.032Z,22.69
2017-06-21T06:59:31.941Z,21.66
2017-06-21T07:00:12.855Z,22.14
2017-06-21T07:00:53.796Z,23.02
2017-06-21T07:01:37.365Z,23.03
2017-06-21T07:02:18.515Z,22.33
2017-06-21T07:02:59.415Z,22.76
2017-06-21T07:03:40.320Z,23.28
2017-06-21T07:06:42.792Z,23.73
2017-06-21T07:07:23.691Z,23.25
2017-06-21T07:11:50.071Z,24.33
2017-06-21T07:12:31.076Z,24.32
2017-06-21T07:13:11.916Z,24.99
2017-06-21T07:13:52.855Z,24.36
2017-06-21T07:14:33.889Z,24.21
2017-06-21T07:15:14.787Z,23.44
2017-06-21T07:15:55.704Z,24.23
2017-06-21T07:16:36.619Z,24.54
2017-06-21T07:17:17.551Z,24.17
2017-06-21T07:17:58.433Z,24.28
2017-06-21T07:18:39.337Z,24.47
2017-06-21T07:19:20.254Z,24.45
2017-06-21T07:20:01.164Z,24.33
2017-06-21T07:20:42.086Z,23.69
2017-06-21T07:21:22.982Z,23.71
2017-06-21T07:22:03.974Z,24.17
2017-06-21T07:22:46.481Z,24.38
2017-06-21T07:23:28.954Z,24.14
2017-06-21T07:25:25.249Z,24.58
2017-06-21T07:26:06.165Z,24.36
2017-06-21T07:26:47.296Z,23.62
2017-06-21T07:27:28.191Z,23.27
2017-06-21T07:28:09.116Z,23.84
2017-06-21T07:31:23.441Z,26.45
2017-06-21T07:32:04.314Z,25.41
2017-06-21T07:34:18.509Z,25.8
2017-06-21T07:34:59.432Z,24.58
2017-06-21T07:35:40.361Z,24.57
2017-06-21T07:36:21.383Z,24.73
2017-06-21T07:37:02.241Z,25.28
2017-06-21T07:39:19.562Z,25.65
2017-06-21T07:40:00.526Z,26.1
2017-06-21T07:40:41.451Z,26.13
2017-06-21T07:41:25.061Z,27.02
2017-06-21T07:42:05.964Z,27.29
2017-06-21T07:42:46.889Z,27.33
2017-06-21T07:43:27.855Z,27.1
2017-06-21T07:45:16.165Z,25.47
2017-06-21T07:45:57.076Z,25.44
2017-06-21T07:46:38.135Z,25.46
2017-06-21T07:47:19.055Z,24.95
2017-06-21T07:47:59.963Z,24.38
2017-06-21T07:48:40.849Z,23.36
2017-06-21T07:51:50.193Z,24.66
2017-06-21T07:52:31.108Z,24.39
2017-06-21T07:53:12.013Z,24.1
2017-06-21T07:53:52.999Z,23.25
2017-06-21T07:55:36.178Z,22.28
2017-06-21T07:56:17.113Z,22.32
2017-06-21T07:56:59.537Z,22.45
2017-06-21T07:57:42.036Z,22.85
2017-06-21T07:58:23.004Z,23.32
2017-06-21T07:59:03.972Z,24.2
2017-06-21T07:59:44.876Z,23.5
2017-06-21T08:00:27.795Z,23.24
2017-06-21T08:01:08.699Z,22.99
2017-06-21T08:02:26.669Z,22.53
2017-06-21T08:03:07.583Z,23.06
2017-06-21T08:03:48.487Z,22.57
2017-06-21T08:04:29.395Z,22.66
2017-06-21T08:05:10.324Z,22.76
2017-06-21T08:05:51.228Z,23.15
2017-06-21T08:06:32.141Z,22.98
2017-06-21T08:07:13.058Z,23.83
2017-06-21T08:07:53.969Z,24.01
2017-06-21T08:08:34.931Z,24.32
2017-06-21T08:09:15.879Z,24.21
2017-06-21T08:09:56.789Z,24.01
2017-06-21T08:11:15.740Z,23.44
2017-06-21T08:11:56.684Z,22.98
2017-06-21T08:12:37.623Z,22.41
2017-06-21T08:13:18.559Z,22.6
2017-06-21T08:13:59.550Z,22.72
2017-06-21T08:14:40.523Z,22.68
2017-06-21T08:17:08.008Z,23.71
2017-06-21T08:17:48.917Z,23.8
2017-06-21T08:19:26.433Z,23.4
2017-06-21T08:20:07.346Z,23.54
2017-06-21T08:22:25.718Z,23.44
2017-06-21T08:23:06.679Z,23.34
2017-06-21T08:25:20.557Z,23.62
2017-06-21T08:26:01.547Z,23.84
2017-06-21T08:29:17.952Z,25.5
2017-06-21T08:29:58.928Z,25.91
2017-06-21T08:32:36.620Z,25.7
2017-06-21T08:33:17.560Z,26.26
2017-06-21T08:33:58.655Z,26.8
2017-06-21T08:34:39.643Z,27.25
2017-06-21T08:35:20.579Z,27.58
2017-06-21T08:36:01.545Z,27.42
2017-06-21T08:38:52.401Z,23.84
2017-06-21T08:42:54.151Z,25.16
2017-06-21T08:43:35.057Z,25.53
2017-06-21T08:44:15.964Z,26.34
2017-06-21T08:44:56.853Z,27.22
2017-06-21T08:45:37.759Z,27.78
2017-06-21T08:46:18.673Z,28.2
2017-06-21T08:46:59.601Z,28.63
2017-06-21T08:47:40.516Z,28.81
2017-06-21T08:48:21.478Z,29.05
2017-06-21T08:49:02.384Z,29.57
2017-06-21T08:49:43.300Z,28.22
2017-06-21T08:50:24.215Z,26.05
2017-06-21T08:51:05.121Z,25.78
2017-06-21T08:54:58.852Z,27.45
2017-06-21T08:55:39.762Z,27.92
2017-06-21T08:56:20.676Z,27.4
2017-06-21T08:57:01.599Z,27.83
2017-06-21T08:57:42.502Z,28.48
2017-06-21T08:58:23.418Z,28.79
2017-06-21T08:59:04.340Z,28.89
2017-06-21T08:59:45.237Z,29.1
2017-06-21T09:00:26.149Z,28.48
2017-06-21T09:01:07.067Z,25.88
2017-06-21T09:01:47.979Z,24.78
2017-06-21T09:02:28.906Z,25.69
2017-06-21T09:03:09.816Z,27.17
2017-06-21T09:03:50.744Z,28.39
2017-06-21T09:04:31.685Z,29.14
2017-06-21T09:05:12.590Z,30.1
2017-06-21T09:05:53.501Z,30.39
2017-06-21T09:06:34.425Z,28.63
2017-06-21T09:07:15.341Z,26.81
2017-06-21T09:07:56.264Z,25.48
2017-06-21T09:08:37.180Z,24.51
2017-06-21T09:09:18.099Z,24.54
2017-06-21T09:09:59.007Z,24.7
2017-06-21T09:10:39.918Z,25.4
2017-06-21T09:11:20.828Z,26.29
2017-06-21T09:12:01.747Z,26.15
2017-06-21T09:12:42.687Z,25.87
2017-06-21T09:13:23.575Z,25.75
2017-06-21T09:14:04.502Z,25.62
2017-06-21T09:14:45.423Z,24.53
2017-06-21T09:15:26.338Z,25.1
2017-06-21T09:16:07.256Z,24.42
2017-06-21T09:16:48.194Z,24.88
2017-06-21T09:17:29.110Z,25.78
2017-06-21T09:18:10.020Z,25.23
2017-06-21T09:18:50.929Z,25.08
2017-06-21T09:19:31.837Z,24.32
2017-06-21T09:20:12.758Z,23.66
2017-06-21T09:20:53.669Z,23.78
2017-06-21T09:21:34.592Z,23.98
2017-06-21T09:22:15.514Z,25.26
2017-06-21T09:22:56.422Z,26.7
2017-06-21T09:23:37.351Z,27.67
2017-06-21T09:24:18.241Z,27.71
2017-06-21T09:24:59.144Z,26.66
2017-06-21T09:25:40.061Z,28.04
2017-06-21T09:26:20.986Z,28.72
2017-06-21T09:27:01.900Z,29.32
2017-06-21T09:27:42.822Z,29.75
2017-06-21T09:28:23.756Z,30.02
2017-06-21T09:29:04.668Z,30.13
2017-06-21T09:29:45.591Z,30.53
2017-06-21T09:30:26.509Z,31.14
2017-06-21T09:31:07.419Z,31.74
2017-06-21T09:31:48.330Z,32.38
2017-06-21T09:32:29.249Z,32.4
2017-06-21T09:33:10.154Z,32.19
2017-06-21T09:33:51.069Z,30.66
2017-06-21T09:34:31.978Z,27.42
2017-06-21T09:35:12.894Z,26.68
2017-06-21T09:35:53.811Z,25.73
2017-06-21T09:36:34.731Z,25.77
2017-06-21T09:37:15.641Z,26.07
2017-06-21T09:37:56.547Z,26
2017-06-21T09:38:37.451Z,26.25
2017-06-21T09:39:18.364Z,26.52
2017-06-21T09:39:59.270Z,25.77
2017-06-21T09:40:40.185Z,25.54
2017-06-21T09:41:21.109Z,24.65
2017-06-21T09:42:02.101Z,24.96
2017-06-21T09:42:43.010Z,24.86
2017-06-21T09:43:23.917Z,25.98
2017-06-21T09:44:04.830Z,26.05
2017-06-21T09:44:45.751Z,26.77
2017-06-21T09:45:26.697Z,26.09
2017-06-21T09:46:07.609Z,26.71
2017-06-21T09:46:48.620Z,26.03
2017-06-21T09:47:29.525Z,25.38
2017-06-21T09:48:10.438Z,24.89
2017-06-21T09:48:51.346Z,25.26
2017-06-21T09:49:32.266Z,27.07
2017-06-21T09:50:13.188Z,27.95
2017-06-21T09:50:54.102Z,29.05
2017-06-21T09:51:35.020Z,29.29
2017-06-21T09:52:15.938Z,26.99
2017-06-21T09:52:56.858Z,25.95
2017-06-21T09:53:37.762Z,25.53
2017-06-21T09:54:18.670Z,25.51
2017-06-21T09:54:59.577Z,26.28
2017-06-21T09:55:40.507Z,25.41
2017-06-21T09:56:21.400Z,25.63
2017-06-21T09:57:02.324Z,25.38
2017-06-21T09:57:43.244Z,24.98
2017-06-21T09:58:24.155Z,26.16
2017-06-21T09:59:05.071Z,28.05
2017-06-21T09:59:45.987Z,29.49
2017-06-21T10:00:27.002Z,30.75
2017-06-21T10:01:07.942Z,31.65
2017-06-21T10:01:48.855Z,32.19
2017-06-21T10:02:29.776Z,32.19
2017-06-21T10:03:10.693Z,32.4
2017-06-21T10:03:51.676Z,32.8
2017-06-21T10:05:20.095Z,30.15
2017-06-21T10:06:01.009Z,30.08
2017-06-21T10:08:22.844Z,26.48
2017-06-21T10:09:03.784Z,26.59
2017-06-21T10:15:32.826Z,26.95
2017-06-21T10:16:13.699Z,27.93
2017-06-21T10:16:54.724Z,26.53
2017-06-21T10:17:35.681Z,25.84
2017-06-21T10:18:16.598Z,26.59
2017-06-21T10:18:57.510Z,25.91
2017-06-21T10:19:38.426Z,26.25
2017-06-21T10:20:19.334Z,26.41
2017-06-21T10:21:00.254Z,25.99
2017-06-21T10:21:41.170Z,26.37
2017-06-21T10:22:22.115Z,27.15
2017-06-21T10:23:03.002Z,26.4
2017-06-21T10:23:43.922Z,25.41
2017-06-21T10:24:24.841Z,26.28
2017-06-21T10:25:05.798Z,26.29
2017-06-21T10:25:46.712Z,26.13